sensor_id;sensor_type;location;lat;lon;timestamp;pressure;altitude;pressure_sealevel;temperature;humidity
43364;BME280;40636;52.424;-1.948;2023-07-16T00:01:54;98386.97;;;14.74;100.00
43364;BME280;40636;52.424;-1.948;2023-07-16T00:04:21;98381.63;;;14.78;100.00
43364;BME280;40636;52.424;-1.948;2023-07-16T00:06:48;98396.88;;;14.75;100.00
43364;BME280;40636;52.424;-1.948;2023-07-16T00:09:15;98390.53;;;14.75;100.00
43364;BME280;40636;52.424;-1.948;2023-07-16T00:11:42;98389.72;;;14.74;100.00
43364;BME280;40636;52.424;-1.948;2023-07-16T00:14:10;98396.19;;;14.69;100.00
43364;BME280;40636;52.424;-1.948;2023-07-16T00:16:38;98398.63;;;14.71;100.00
43364;BME280;40636;52.424;-1.948;2023-07-16T00:19:05;98397.13;;;14.65;100.00
43364;BME280;40636;52.424;-1.948;2023-07-16T00:21:32;98400.91;;;14.69;100.00
43364;BME280;40636;52.424;-1.948;2023-07-16T00:23:59;98406.22;;;14.65;100.00
43364;BME280;40636;52.424;-1.948;2023-07-16T00:26:26;98414.31;;;14.62;100.00
43364;BME280;40636;52.424;-1.948;2023-07-16T00:28:52;98403.13;;;14.58;100.00
43364;BME280;40636;52.424;-1.948;2023-07-16T00:31:19;98406.69;;;14.59;100.00
43364;BME280;40636;52.424;-1.948;2023-07-16T00:33:46;98405.88;;;14.58;100.00
43364;BME280;40636;52.424;-1.948;2023-07-16T00:36:13;98405.03;;;14.58;100.00
43364;BME280;40636;52.424;-1.948;2023-07-16T00:38:40;98409.13;;;14.60;100.00
43364;BME280;40636;52.424;-1.948;2023-07-16T00:41:09;98406.38;;;14.60;100.00
43364;BME280;40636;52.424;-1.948;2023-07-16T00:43:35;98413.03;;;14.59;100.00
43364;BME280;40636;52.424;-1.948;2023-07-16T00:46:02;98410.56;;;14.58;100.00
43364;BME280;40636;52.424;-1.948;2023-07-16T00:48:29;98417.34;;;14.52;100.00
43364;BME280;40636;52.424;-1.948;2023-07-16T00:50:56;98410.69;;;14.53;100.00
43364;BME280;40636;52.424;-1.948;2023-07-16T00:53:23;98420.78;;;14.57;100.00
43364;BME280;40636;52.424;-1.948;2023-07-16T00:55:50;98423.53;;;14.57;100.00
43364;BME280;40636;52.424;-1.948;2023-07-16T00:58:18;98422.06;;;14.51;100.00
43364;BME280;40636;52.424;-1.948;2023-07-16T01:00:45;98423.06;;;14.55;100.00
43364;BME280;40636;52.424;-1.948;2023-07-16T01:03:13;98423.06;;;14.55;100.00
43364;BME280;40636;52.424;-1.948;2023-07-16T01:08:14;98434.22;;;14.50;100.00
43364;BME280;40636;52.424;-1.948;2023-07-16T01:10:44;98431.97;;;14.52;100.00
43364;BME280;40636;52.424;-1.948;2023-07-16T01:13:11;98433.72;;;14.48;100.00
43364;BME280;40636;52.424;-1.948;2023-07-16T01:15:38;98436.47;;;14.48;100.00
43364;BME280;40636;52.424;-1.948;2023-07-16T01:18:05;98449.66;;;14.51;100.00
43364;BME280;40636;52.424;-1.948;2023-07-16T01:20:32;98453.56;;;14.50;100.00
43364;BME280;40636;52.424;-1.948;2023-07-16T01:26:25;98461.84;;;14.50;100.00
43364;BME280;40636;52.424;-1.948;2023-07-16T01:31:43;98468.16;;;14.51;100.00
43364;BME280;40636;52.424;-1.948;2023-07-16T01:34:12;98472.88;;;14.50;100.00
43364;BME280;40636;52.424;-1.948;2023-07-16T01:36:41;98480.03;;;14.51;100.00
43364;BME280;40636;52.424;-1.948;2023-07-16T01:39:08;98472.34;;;14.48;100.00
43364;BME280;40636;52.424;-1.948;2023-07-16T01:41:35;98480.34;;;14.50;100.00
43364;BME280;40636;52.424;-1.948;2023-07-16T01:44:02;98485.31;;;14.47;100.00
43364;BME280;40636;52.424;-1.948;2023-07-16T01:46:29;98487.50;;;14.51;100.00
43364;BME280;40636;52.424;-1.948;2023-07-16T01:48:56;98484.72;;;14.51;100.00
43364;BME280;40636;52.424;-1.948;2023-07-16T01:51:22;98498.91;;;14.44;100.00
43364;BME280;40636;52.424;-1.948;2023-07-16T01:53:49;98502.19;;;14.46;100.00
43364;BME280;40636;52.424;-1.948;2023-07-16T01:56:16;98510.81;;;14.44;100.00
43364;BME280;40636;52.424;-1.948;2023-07-16T01:58:43;98506.38;;;14.43;100.00
43364;BME280;40636;52.424;-1.948;2023-07-16T02:01:10;98503.63;;;14.43;100.00
43364;BME280;40636;52.424;-1.948;2023-07-16T02:03:37;98509.34;;;14.47;100.00
43364;BME280;40636;52.424;-1.948;2023-07-16T02:06:04;98513.56;;;14.44;100.00
43364;BME280;40636;52.424;-1.948;2023-07-16T02:08:31;98508.97;;;14.40;100.00
43364;BME280;40636;52.424;-1.948;2023-07-16T02:10:57;98519.16;;;14.39;100.00
43364;BME280;40636;52.424;-1.948;2023-07-16T02:13:25;98526.16;;;14.37;100.00
43364;BME280;40636;52.424;-1.948;2023-07-16T02:15:52;98521.22;;;14.34;100.00
43364;BME280;40636;52.424;-1.948;2023-07-16T02:18:18;98526.75;;;14.34;100.00
43364;BME280;40636;52.424;-1.948;2023-07-16T02:20:45;98516.84;;;14.33;100.00
43364;BME280;40636;52.424;-1.948;2023-07-16T02:23:12;98518.69;;;14.37;100.00
43364;BME280;40636;52.424;-1.948;2023-07-16T02:25:39;98519.59;;;14.33;100.00
43364;BME280;40636;52.424;-1.948;2023-07-16T02:28:06;98515.72;;;14.34;100.00
43364;BME280;40636;52.424;-1.948;2023-07-16T02:30:32;98529.22;;;14.35;100.00
43364;BME280;40636;52.424;-1.948;2023-07-16T02:32:59;98526.25;;;14.32;100.00
43364;BME280;40636;52.424;-1.948;2023-07-16T02:35:26;98533.19;;;14.29;100.00
43364;BME280;40636;52.424;-1.948;2023-07-16T02:37:53;98530.75;;;14.28;100.00
43364;BME280;40636;52.424;-1.948;2023-07-16T02:40:19;98533.53;;;14.28;100.00
43364;BME280;40636;52.424;-1.948;2023-07-16T02:42:46;98533.31;;;14.24;100.00
43364;BME280;40636;52.424;-1.948;2023-07-16T02:45:13;98542.94;;;14.27;100.00
43364;BME280;40636;52.424;-1.948;2023-07-16T02:47:39;98543.75;;;14.27;100.00
43364;BME280;40636;52.424;-1.948;2023-07-16T02:50:07;98552.31;;;14.26;100.00
43364;BME280;40636;52.424;-1.948;2023-07-16T02:52:33;98545.50;;;14.23;100.00
43364;BME280;40636;52.424;-1.948;2023-07-16T02:55:00;98552.94;;;14.23;100.00
43364;BME280;40636;52.424;-1.948;2023-07-16T02:57:28;98551.28;;;14.21;100.00
43364;BME280;40636;52.424;-1.948;2023-07-16T02:59:54;98556.81;;;14.21;100.00
43364;BME280;40636;52.424;-1.948;2023-07-16T03:02:21;98560.69;;;14.20;100.00
43364;BME280;40636;52.424;-1.948;2023-07-16T03:04:48;98561.84;;;14.19;100.00
43364;BME280;40636;52.424;-1.948;2023-07-16T03:07:15;98572.38;;;14.17;100.00
43364;BME280;40636;52.424;-1.948;2023-07-16T03:09:41;98563.78;;;14.19;100.00
43364;BME280;40636;52.424;-1.948;2023-07-16T03:12:08;98570.13;;;14.19;100.00
43364;BME280;40636;52.424;-1.948;2023-07-16T03:14:35;98574.28;;;14.17;100.00
43364;BME280;40636;52.424;-1.948;2023-07-16T03:17:02;98586.66;;;14.19;100.00
43364;BME280;40636;52.424;-1.948;2023-07-16T03:19:30;98586.19;;;14.17;100.00
43364;BME280;40636;52.424;-1.948;2023-07-16T03:21:57;98595.75;;;14.20;100.00
43364;BME280;40636;52.424;-1.948;2023-07-16T03:24:23;98592.19;;;14.19;100.00
43364;BME280;40636;52.424;-1.948;2023-07-16T03:26:50;98585.31;;;14.17;100.00
43364;BME280;40636;52.424;-1.948;2023-07-16T03:29:19;98593.59;;;14.17;100.00
43364;BME280;40636;52.424;-1.948;2023-07-16T03:31:46;98606.59;;;14.16;100.00
43364;BME280;40636;52.424;-1.948;2023-07-16T03:34:12;98604.03;;;14.20;100.00
43364;BME280;40636;52.424;-1.948;2023-07-16T03:36:39;98613.13;;;14.20;100.00
43364;BME280;40636;52.424;-1.948;2023-07-16T03:39:06;98616.53;;;14.17;100.00
43364;BME280;40636;52.424;-1.948;2023-07-16T03:41:32;98616.59;;;14.12;100.00
43364;BME280;40636;52.424;-1.948;2023-07-16T03:43:59;98625.72;;;14.13;100.00
43364;BME280;40636;52.424;-1.948;2023-07-16T03:46:26;98630.41;;;14.12;100.00
43364;BME280;40636;52.424;-1.948;2023-07-16T03:48:53;98633.78;;;14.09;100.00
43364;BME280;40636;52.424;-1.948;2023-07-16T03:51:20;98640.72;;;14.07;100.00
43364;BME280;40636;52.424;-1.948;2023-07-16T03:53:46;98637.34;;;14.10;100.00
43364;BME280;40636;52.424;-1.948;2023-07-16T03:56:13;98645.84;;;14.13;100.00
43364;BME280;40636;52.424;-1.948;2023-07-16T03:58:41;98647.56;;;14.09;100.00
43364;BME280;40636;52.424;-1.948;2023-07-16T04:01:08;98642.88;;;14.10;100.00
43364;BME280;40636;52.424;-1.948;2023-07-16T04:03:34;98642.88;;;14.10;100.00
43364;BME280;40636;52.424;-1.948;2023-07-16T04:06:05;98631.03;;;14.09;100.00
43364;BME280;40636;52.424;-1.948;2023-07-16T04:08:32;98640.13;;;14.10;100.00
43364;BME280;40636;52.424;-1.948;2023-07-16T04:10:59;98648.19;;;14.06;100.00
43364;BME280;40636;52.424;-1.948;2023-07-16T04:13:26;98647.03;;;14.07;100.00
43364;BME280;40636;52.424;-1.948;2023-07-16T04:15:52;98640.22;;;14.05;100.00
43364;BME280;40636;52.424;-1.948;2023-07-16T04:18:24;98655.53;;;13.97;100.00
43364;BME280;40636;52.424;-1.948;2023-07-16T04:20:52;98667.69;;;13.96;100.00
43364;BME280;40636;52.424;-1.948;2023-07-16T04:23:19;98678.31;;;14.03;100.00
43364;BME280;40636;52.424;-1.948;2023-07-16T04:25:46;98680.25;;;14.02;100.00
43364;BME280;40636;52.424;-1.948;2023-07-16T04:28:13;98679.66;;;14.05;100.00
43364;BME280;40636;52.424;-1.948;2023-07-16T04:30:40;98683.31;;;14.01;100.00
43364;BME280;40636;52.424;-1.948;2023-07-16T04:33:06;98686.41;;;13.99;100.00
43364;BME280;40636;52.424;-1.948;2023-07-16T04:35:33;98685.47;;;14.04;100.00
43364;BME280;40636;52.424;-1.948;2023-07-16T04:38:00;98689.34;;;14.03;100.00
43364;BME280;40636;52.424;-1.948;2023-07-16T04:40:29;98698.38;;;14.08;100.00
43364;BME280;40636;52.424;-1.948;2023-07-16T04:42:56;98686.19;;;14.09;100.00
43364;BME280;40636;52.424;-1.948;2023-07-16T04:45:23;98700.28;;;14.08;100.00
43364;BME280;40636;52.424;-1.948;2023-07-16T04:47:50;98698.88;;;14.10;100.00
43364;BME280;40636;52.424;-1.948;2023-07-16T04:50:17;98708.56;;;14.08;100.00
43364;BME280;40636;52.424;-1.948;2023-07-16T04:52:43;98707.03;;;14.15;100.00
43364;BME280;40636;52.424;-1.948;2023-07-16T04:55:10;98705.19;;;14.11;100.00
43364;BME280;40636;52.424;-1.948;2023-07-16T04:57:39;98710.94;;;14.14;100.00
43364;BME280;40636;52.424;-1.948;2023-07-16T05:00:06;98719.09;;;14.06;100.00
43364;BME280;40636;52.424;-1.948;2023-07-16T05:02:34;98722.06;;;14.09;100.00
43364;BME280;40636;52.424;-1.948;2023-07-16T05:05:01;98717.34;;;14.10;100.00
43364;BME280;40636;52.424;-1.948;2023-07-16T05:07:28;98723.38;;;14.12;100.00
43364;BME280;40636;52.424;-1.948;2023-07-16T05:09:54;98732.56;;;14.07;100.00
43364;BME280;40636;52.424;-1.948;2023-07-16T05:12:21;98733.19;;;14.04;100.00
43364;BME280;40636;52.424;-1.948;2023-07-16T05:14:48;98737.78;;;14.09;100.00
43364;BME280;40636;52.424;-1.948;2023-07-16T05:17:15;98740.84;;;14.07;100.00
43364;BME280;40636;52.424;-1.948;2023-07-16T05:19:42;98748.31;;;14.07;100.00
43364;BME280;40636;52.424;-1.948;2023-07-16T05:22:09;98749.75;;;14.04;100.00
43364;BME280;40636;52.424;-1.948;2023-07-16T05:24:36;98758.22;;;14.08;100.00
43364;BME280;40636;52.424;-1.948;2023-07-16T05:27:03;98765.06;;;14.10;100.00
43364;BME280;40636;52.424;-1.948;2023-07-16T05:29:30;98765.28;;;14.14;100.00
43364;BME280;40636;52.424;-1.948;2023-07-16T05:31:56;98775.50;;;14.13;100.00
43364;BME280;40636;52.424;-1.948;2023-07-16T05:34:23;98775.50;;;14.13;100.00
43364;BME280;40636;52.424;-1.948;2023-07-16T05:36:53;98772.13;;;14.16;100.00
43364;BME280;40636;52.424;-1.948;2023-07-16T05:39:21;98775.09;;;14.20;100.00
43364;BME280;40636;52.424;-1.948;2023-07-16T05:41:48;98768.78;;;14.19;100.00
43364;BME280;40636;52.424;-1.948;2023-07-16T05:44:15;98777.16;;;14.14;100.00
43364;BME280;40636;52.424;-1.948;2023-07-16T05:46:42;98781.88;;;14.28;100.00
43364;BME280;40636;52.424;-1.948;2023-07-16T05:49:08;98779.63;;;14.43;100.00
43364;BME280;40636;52.424;-1.948;2023-07-16T05:51:35;98790.72;;;14.57;100.00
43364;BME280;40636;52.424;-1.948;2023-07-16T05:54:02;98789.09;;;14.70;100.00
43364;BME280;40636;52.424;-1.948;2023-07-16T05:56:29;98790.56;;;14.67;100.00
43364;BME280;40636;52.424;-1.948;2023-07-16T05:58:56;98780.44;;;14.63;100.00
43364;BME280;40636;52.424;-1.948;2023-07-16T06:01:23;98801.78;;;14.71;100.00
43364;BME280;40636;52.424;-1.948;2023-07-16T06:03:49;98804.16;;;14.78;100.00
43364;BME280;40636;52.424;-1.948;2023-07-16T06:06:16;98807.53;;;14.88;100.00
43364;BME280;40636;52.424;-1.948;2023-07-16T06:08:43;98804.84;;;15.11;100.00
43364;BME280;40636;52.424;-1.948;2023-07-16T06:11:11;98809.97;;;15.31;100.00
43364;BME280;40636;52.424;-1.948;2023-07-16T06:13:38;98815.13;;;15.46;100.00
43364;BME280;40636;52.424;-1.948;2023-07-16T06:16:05;98810.84;;;15.54;100.00
43364;BME280;40636;52.424;-1.948;2023-07-16T06:18:31;98819.00;;;15.59;100.00
43364;BME280;40636;52.424;-1.948;2023-07-16T06:20:58;98818.50;;;15.57;100.00
43364;BME280;40636;52.424;-1.948;2023-07-16T06:23:25;98828.53;;;15.53;100.00
43364;BME280;40636;52.424;-1.948;2023-07-16T06:25:54;98819.75;;;15.51;100.00
43364;BME280;40636;52.424;-1.948;2023-07-16T06:28:22;98834.97;;;15.62;100.00
43364;BME280;40636;52.424;-1.948;2023-07-16T06:30:49;98827.22;;;15.51;100.00
43364;BME280;40636;52.424;-1.948;2023-07-16T06:33:16;98840.00;;;15.60;100.00
43364;BME280;40636;52.424;-1.948;2023-07-16T06:35:47;98853.34;;;15.58;100.00
43364;BME280;40636;52.424;-1.948;2023-07-16T06:38:14;98855.56;;;15.56;100.00
43364;BME280;40636;52.424;-1.948;2023-07-16T06:40:51;98852.91;;;15.65;100.00
43364;BME280;40636;52.424;-1.948;2023-07-16T06:43:18;98847.47;;;15.73;100.00
43364;BME280;40636;52.424;-1.948;2023-07-16T06:45:45;98852.41;;;15.77;100.00
43364;BME280;40636;52.424;-1.948;2023-07-16T06:48:12;98861.84;;;15.98;100.00
43364;BME280;40636;52.424;-1.948;2023-07-16T06:50:39;98853.41;;;16.03;100.00
43364;BME280;40636;52.424;-1.948;2023-07-16T06:53:06;98861.72;;;16.03;100.00
43364;BME280;40636;52.424;-1.948;2023-07-16T06:55:32;98871.84;;;16.08;100.00
43364;BME280;40636;52.424;-1.948;2023-07-16T06:58:00;98868.44;;;16.11;100.00
43364;BME280;40636;52.424;-1.948;2023-07-16T07:00:27;98870.97;;;16.21;100.00
43364;BME280;40636;52.424;-1.948;2023-07-16T07:02:54;98869.78;;;16.36;100.00
43364;BME280;40636;52.424;-1.948;2023-07-16T07:05:21;98876.50;;;16.43;100.00
43364;BME280;40636;52.424;-1.948;2023-07-16T07:07:48;98881.56;;;16.41;100.00
43364;BME280;40636;52.424;-1.948;2023-07-16T07:10:15;98880.34;;;16.34;100.00
43364;BME280;40636;52.424;-1.948;2023-07-16T07:12:41;98888.16;;;16.32;100.00
43364;BME280;40636;52.424;-1.948;2023-07-16T07:15:09;98893.50;;;16.51;100.00
43364;BME280;40636;52.424;-1.948;2023-07-16T07:17:36;98893.44;;;16.64;100.00
43364;BME280;40636;52.424;-1.948;2023-07-16T07:20:03;98897.22;;;16.68;100.00
43364;BME280;40636;52.424;-1.948;2023-07-16T07:22:31;98895.31;;;16.55;100.00
43364;BME280;40636;52.424;-1.948;2023-07-16T07:24:58;98906.47;;;16.64;100.00
43364;BME280;40636;52.424;-1.948;2023-07-16T07:27:25;98904.38;;;16.69;100.00
43364;BME280;40636;52.424;-1.948;2023-07-16T07:29:52;98898.72;;;16.52;100.00
43364;BME280;40636;52.424;-1.948;2023-07-16T07:32:19;98920.00;;;16.65;100.00
43364;BME280;40636;52.424;-1.948;2023-07-16T07:34:47;98920.50;;;16.67;100.00
43364;BME280;40636;52.424;-1.948;2023-07-16T07:37:14;98918.41;;;16.95;100.00
43364;BME280;40636;52.424;-1.948;2023-07-16T07:39:40;98929.03;;;17.33;100.00
43364;BME280;40636;52.424;-1.948;2023-07-16T07:42:07;98925.66;;;17.45;100.00
43364;BME280;40636;52.424;-1.948;2023-07-16T07:44:35;98921.91;;;17.49;100.00
43364;BME280;40636;52.424;-1.948;2023-07-16T07:47:03;98932.56;;;17.65;100.00
43364;BME280;40636;52.424;-1.948;2023-07-16T07:49:30;98936.97;;;17.66;100.00
43364;BME280;40636;52.424;-1.948;2023-07-16T07:51:57;98950.38;;;17.72;100.00
43364;BME280;40636;52.424;-1.948;2023-07-16T07:54:23;98962.09;;;17.69;100.00
43364;BME280;40636;52.424;-1.948;2023-07-16T07:56:50;98953.91;;;17.56;100.00
43364;BME280;40636;52.424;-1.948;2023-07-16T07:59:17;98947.03;;;17.53;100.00
43364;BME280;40636;52.424;-1.948;2023-07-16T08:01:44;98964.97;;;17.87;100.00
43364;BME280;40636;52.424;-1.948;2023-07-16T08:04:10;98948.97;;;17.92;100.00
43364;BME280;40636;52.424;-1.948;2023-07-16T08:06:37;98972.81;;;18.02;100.00
43364;BME280;40636;52.424;-1.948;2023-07-16T08:09:04;98961.69;;;17.85;100.00
43364;BME280;40636;52.424;-1.948;2023-07-16T08:11:31;98967.53;;;17.74;100.00
43364;BME280;40636;52.424;-1.948;2023-07-16T08:13:58;98970.38;;;17.92;100.00
43364;BME280;40636;52.424;-1.948;2023-07-16T08:16:25;98975.31;;;18.04;100.00
43364;BME280;40636;52.424;-1.948;2023-07-16T08:18:51;98976.25;;;17.90;100.00
43364;BME280;40636;52.424;-1.948;2023-07-16T08:21:18;98988.81;;;17.88;100.00
43364;BME280;40636;52.424;-1.948;2023-07-16T08:23:51;98985.59;;;17.63;100.00
43364;BME280;40636;52.424;-1.948;2023-07-16T08:26:18;98978.56;;;17.66;100.00
43364;BME280;40636;52.424;-1.948;2023-07-16T08:28:45;98981.13;;;17.76;100.00
43364;BME280;40636;52.424;-1.948;2023-07-16T08:31:12;98989.44;;;17.85;100.00
43364;BME280;40636;52.424;-1.948;2023-07-16T08:33:39;98979.03;;;17.99;100.00
43364;BME280;40636;52.424;-1.948;2023-07-16T08:36:06;98979.88;;;18.08;100.00
43364;BME280;40636;52.424;-1.948;2023-07-16T08:38:33;98982.97;;;18.15;100.00
43364;BME280;40636;52.424;-1.948;2023-07-16T08:41:00;98991.66;;;18.31;100.00
43364;BME280;40636;52.424;-1.948;2023-07-16T08:43:29;98992.34;;;18.45;100.00
43364;BME280;40636;52.424;-1.948;2023-07-16T08:45:56;98988.75;;;18.62;100.00
43364;BME280;40636;52.424;-1.948;2023-07-16T08:48:24;98991.34;;;18.50;100.00
43364;BME280;40636;52.424;-1.948;2023-07-16T08:50:51;99000.66;;;18.54;100.00
43364;BME280;40636;52.424;-1.948;2023-07-16T08:53:18;98999.69;;;18.85;100.00
43364;BME280;40636;52.424;-1.948;2023-07-16T08:55:45;99007.22;;;18.93;100.00
43364;BME280;40636;52.424;-1.948;2023-07-16T08:58:16;99014.25;;;18.73;100.00
43364;BME280;40636;52.424;-1.948;2023-07-16T09:00:44;99017.00;;;18.64;100.00
43364;BME280;40636;52.424;-1.948;2023-07-16T09:03:12;99024.16;;;18.39;100.00
43364;BME280;40636;52.424;-1.948;2023-07-16T09:05:46;99032.31;;;18.18;100.00
43364;BME280;40636;52.424;-1.948;2023-07-16T09:08:13;99026.47;;;18.29;100.00
43364;BME280;40636;52.424;-1.948;2023-07-16T09:10:41;99026.00;;;18.35;100.00
43364;BME280;40636;52.424;-1.948;2023-07-16T09:13:08;99033.94;;;18.19;100.00
43364;BME280;40636;52.424;-1.948;2023-07-16T09:15:36;99033.28;;;18.05;100.00
43364;BME280;40636;52.424;-1.948;2023-07-16T09:18:04;99036.88;;;18.14;100.00
43364;BME280;40636;52.424;-1.948;2023-07-16T09:20:31;99036.41;;;18.12;100.00
43364;BME280;40636;52.424;-1.948;2023-07-16T09:22:59;99041.44;;;18.10;100.00
43364;BME280;40636;52.424;-1.948;2023-07-16T09:25:30;99029.59;;;17.79;100.00
43364;BME280;40636;52.424;-1.948;2023-07-16T09:28:05;99039.91;;;17.87;100.00
43364;BME280;40636;52.424;-1.948;2023-07-16T09:30:33;99040.59;;;18.01;100.00
43364;BME280;40636;52.424;-1.948;2023-07-16T09:33:10;99042.91;;;18.16;100.00
43364;BME280;40636;52.424;-1.948;2023-07-16T09:35:44;99047.19;;;18.22;100.00
43364;BME280;40636;52.424;-1.948;2023-07-16T09:38:14;99053.06;;;18.12;100.00
43364;BME280;40636;52.424;-1.948;2023-07-16T09:40:42;99050.94;;;18.09;100.00
43364;BME280;40636;52.424;-1.948;2023-07-16T09:43:10;99052.19;;;18.03;100.00
43364;BME280;40636;52.424;-1.948;2023-07-16T09:45:38;99049.41;;;18.03;100.00
43364;BME280;40636;52.424;-1.948;2023-07-16T09:48:05;99045.41;;;18.27;100.00
43364;BME280;40636;52.424;-1.948;2023-07-16T09:50:34;99043.63;;;18.39;100.00
43364;BME280;40636;52.424;-1.948;2023-07-16T09:53:07;99044.97;;;18.68;100.00
43364;BME280;40636;52.424;-1.948;2023-07-16T09:55:36;99054.16;;;18.86;100.00
43364;BME280;40636;52.424;-1.948;2023-07-16T09:58:09;99053.81;;;18.79;100.00
43364;BME280;40636;52.424;-1.948;2023-07-16T10:00:37;99055.78;;;18.78;100.00
43364;BME280;40636;52.424;-1.948;2023-07-16T10:03:06;99057.72;;;18.60;100.00
43364;BME280;40636;52.424;-1.948;2023-07-16T10:05:36;99071.09;;;18.41;100.00
43364;BME280;40636;52.424;-1.948;2023-07-16T10:08:04;99068.31;;;18.41;100.00
43364;BME280;40636;52.424;-1.948;2023-07-16T10:10:54;99071.06;;;18.32;100.00
43364;BME280;40636;52.424;-1.948;2023-07-16T10:13:24;99071.88;;;18.33;100.00
43364;BME280;40636;52.424;-1.948;2023-07-16T10:15:55;99070.94;;;18.46;100.00
43364;BME280;40636;52.424;-1.948;2023-07-16T10:18:27;99070.94;;;18.46;100.00
43364;BME280;40636;52.424;-1.948;2023-07-16T10:21:02;99068.81;;;18.51;100.00
43364;BME280;40636;52.424;-1.948;2023-07-16T10:23:39;99067.25;;;18.77;100.00
43364;BME280;40636;52.424;-1.948;2023-07-16T10:26:08;99071.31;;;18.96;100.00
43364;BME280;40636;52.424;-1.948;2023-07-16T10:28:41;99071.16;;;19.01;100.00
43364;BME280;40636;52.424;-1.948;2023-07-16T10:31:24;99067.56;;;19.01;100.00
43364;BME280;40636;52.424;-1.948;2023-07-16T10:34:04;99067.03;;;19.16;100.00
43364;BME280;40636;52.424;-1.948;2023-07-16T10:36:41;99072.28;;;19.35;100.00
43364;BME280;40636;52.424;-1.948;2023-07-16T10:39:08;99067.66;;;19.39;100.00
43364;BME280;40636;52.424;-1.948;2023-07-16T10:41:35;99068.41;;;19.74;100.00
43364;BME280;40636;52.424;-1.948;2023-07-16T10:44:02;99076.34;;;19.93;100.00
43364;BME280;40636;52.424;-1.948;2023-07-16T10:46:31;99082.13;;;19.88;100.00
43364;BME280;40636;52.424;-1.948;2023-07-16T10:49:00;99089.22;;;19.77;100.00
43364;BME280;40636;52.424;-1.948;2023-07-16T10:51:28;99088.72;;;19.66;100.00
43364;BME280;40636;52.424;-1.948;2023-07-16T10:53:56;99104.31;;;19.50;100.00
43364;BME280;40636;52.424;-1.948;2023-07-16T10:56:24;99117.13;;;18.99;100.00
43364;BME280;40636;52.424;-1.948;2023-07-16T10:58:51;99135.22;;;18.13;100.00
43364;BME280;40636;52.424;-1.948;2023-07-16T11:01:28;99133.16;;;17.65;100.00
43364;BME280;40636;52.424;-1.948;2023-07-16T11:04:00;99132.16;;;17.39;100.00
43364;BME280;40636;52.424;-1.948;2023-07-16T11:06:27;99137.97;;;17.29;100.00
43364;BME280;40636;52.424;-1.948;2023-07-16T11:08:54;99134.78;;;17.44;100.00
43364;BME280;40636;52.424;-1.948;2023-07-16T11:11:30;99131.13;;;17.80;100.00
43364;BME280;40636;52.424;-1.948;2023-07-16T11:13:57;99130.97;;;17.76;100.00
43364;BME280;40636;52.424;-1.948;2023-07-16T11:16:23;99142.41;;;17.83;100.00
43364;BME280;40636;52.424;-1.948;2023-07-16T11:18:51;99138.34;;;17.81;100.00
43364;BME280;40636;52.424;-1.948;2023-07-16T11:21:20;99151.44;;;17.44;100.00
43364;BME280;40636;52.424;-1.948;2023-07-16T11:23:48;99146.41;;;17.23;100.00
43364;BME280;40636;52.424;-1.948;2023-07-16T11:26:15;99153.22;;;17.17;100.00
43364;BME280;40636;52.424;-1.948;2023-07-16T11:28:45;99139.59;;;17.30;100.00
43364;BME280;40636;52.424;-1.948;2023-07-16T11:31:16;99143.56;;;17.37;100.00
43364;BME280;40636;52.424;-1.948;2023-07-16T11:33:44;99127.25;;;17.36;100.00
43364;BME280;40636;52.424;-1.948;2023-07-16T11:36:11;99128.44;;;17.43;100.00
43364;BME280;40636;52.424;-1.948;2023-07-16T11:38:39;99139.66;;;17.61;100.00
43364;BME280;40636;52.424;-1.948;2023-07-16T11:41:06;99141.41;;;17.79;100.00
43364;BME280;40636;52.424;-1.948;2023-07-16T11:43:36;99138.88;;;17.91;100.00
43364;BME280;40636;52.424;-1.948;2023-07-16T11:46:05;99150.88;;;18.09;100.00
43364;BME280;40636;52.424;-1.948;2023-07-16T11:48:41;99156.50;;;18.27;100.00
43364;BME280;40636;52.424;-1.948;2023-07-16T11:51:08;99161.50;;;18.16;100.00
43364;BME280;40636;52.424;-1.948;2023-07-16T11:53:35;99169.81;;;18.07;100.00
43364;BME280;40636;52.424;-1.948;2023-07-16T11:56:05;99173.91;;;17.79;100.00
43364;BME280;40636;52.424;-1.948;2023-07-16T11:58:32;99176.66;;;17.56;100.00
43364;BME280;40636;52.424;-1.948;2023-07-16T12:00:58;99179.25;;;17.53;100.00
43364;BME280;40636;52.424;-1.948;2023-07-16T12:03:25;99167.84;;;17.54;100.00
43364;BME280;40636;52.424;-1.948;2023-07-16T12:05:52;99172.00;;;17.65;100.00
43364;BME280;40636;52.424;-1.948;2023-07-16T12:08:20;99173.53;;;17.71;100.00
43364;BME280;40636;52.424;-1.948;2023-07-16T12:10:46;99174.13;;;17.68;100.00
43364;BME280;40636;52.424;-1.948;2023-07-16T12:13:13;99174.97;;;17.69;100.00
43364;BME280;40636;52.424;-1.948;2023-07-16T12:15:40;99171.31;;;17.60;100.00
43364;BME280;40636;52.424;-1.948;2023-07-16T12:18:07;99192.63;;;17.50;100.00
43364;BME280;40636;52.424;-1.948;2023-07-16T12:20:34;99205.72;;;17.36;100.00
43364;BME280;40636;52.424;-1.948;2023-07-16T12:23:02;99209.50;;;17.18;100.00
43364;BME280;40636;52.424;-1.948;2023-07-16T12:25:30;99197.41;;;17.00;100.00
43364;BME280;40636;52.424;-1.948;2023-07-16T12:27:57;99191.69;;;16.55;100.00
43364;BME280;40636;52.424;-1.948;2023-07-16T12:30:24;99197.94;;;16.61;100.00
43364;BME280;40636;52.424;-1.948;2023-07-16T12:32:52;99180.41;;;16.38;100.00
43364;BME280;40636;52.424;-1.948;2023-07-16T12:35:19;99190.34;;;16.39;100.00
43364;BME280;40636;52.424;-1.948;2023-07-16T12:37:46;99196.41;;;16.41;100.00
43364;BME280;40636;52.424;-1.948;2023-07-16T12:40:12;99209.94;;;16.56;100.00
43364;BME280;40636;52.424;-1.948;2023-07-16T12:42:39;99211.41;;;16.54;100.00
43364;BME280;40636;52.424;-1.948;2023-07-16T12:45:06;99210.38;;;16.63;100.00
43364;BME280;40636;52.424;-1.948;2023-07-16T12:47:34;99204.16;;;17.08;100.00
43364;BME280;40636;52.424;-1.948;2023-07-16T12:50:03;99205.94;;;17.40;100.00
43364;BME280;40636;52.424;-1.948;2023-07-16T12:52:30;99210.22;;;17.68;100.00